Time;durP1;ratioP1;P1;durP2;ratioP2;P2;SDS_P1;SDS_P2;PMS_P1;PMS_P2;Temp;Humidity;BMP_temperature;BMP_pressure;BME280_temperature;BME280_humidity;BME280_pressure;Samples;Min_cycle;Max_cycle;Signal;HPM_P1;HPM_P2
2022/02/12 00:00:12;;;;;;;;;;;;;;;;;;1026710;28;911;-42
2022/02/12 00:00:43;;;;;;;;;;;;;;;;;;1026624;28;1044;-42
2022/02/12 00:01:13;;;;;;;;;;;;;;;;;;1026854;28;839;-43
2022/02/12 00:01:44;;;;;;;;;;;;;;;;;;1026830;28;1036;-42
2022/02/12 00:02:14;;;;;;;;;;;;;;;;;;1031151;28;815;-42
2022/02/12 00:02:44;;;;;;;;;;;;;;;;;;1031279;28;1030;-42
2022/02/12 00:03:15;;;;;;;;;;;;;;;;;;1030909;28;974;-42
2022/02/12 00:03:45;;;;;;;;;;;;;;;;;;1031099;28;989;-43
2022/02/12 00:04:15;;;;;;;;;;;;;;;;;;1030986;28;1649;-42
2022/02/12 00:04:46;;;;;;;;;;;;;;;;;;1031167;28;962;-42
2022/02/12 00:05:17;;;;;;;;;;;;;;;;;;1030951;28;950;-42
2022/02/12 00:05:48;;;;;;;;;;;;;;;;;;1031041;28;904;-42
2022/02/12 00:06:18;;;;;;;;;;;;;;;;;;1031169;28;828;-41
2022/02/12 00:06:48;;;;;;;;;;;;;;;;;;1031156;28;1114;-42
2022/02/12 00:07:19;;;;;;;;;;;;;;;;;;1031055;28;800;-42
2022/02/12 00:07:49;;;;;;;;;;;;;;;;;;1031174;28;1061;-42
2022/02/12 00:08:20;;;;;;;;;;;;;;;;;;1031055;28;906;-42
2022/02/12 00:08:50;;;;;;;;;;;;;;;;;;1031106;28;958;-42
2022/02/12 00:09:21;;;;;;;;;;;;;;;;;;1031130;28;982;-42
2022/02/12 00:09:52;;;;;;;;;;;;;;;;;;1031028;28;963;-42
2022/02/12 00:10:23;;;;;;;;;;;;;;;;;;1031119;28;959;-42
2022/02/12 00:10:53;;;;;;;;;;;;;;;;;;1030950;28;931;-42
2022/02/12 00:11:24;;;;;;;;;;;;;;;;;;1031040;28;969;-42
2022/02/12 00:11:54;;;;;;;;;;;;;;;;;;1031090;28;1914;-42
2022/02/12 00:12:24;;;;;;;;;;;;;;;;;;1031074;28;966;-42
2022/02/12 00:12:55;;;;;;;;;;;;;;;;;;1031097;28;1041;-42
2022/02/12 00:13:26;;;;;;;;;;;;;;;;;;1031096;28;931;-42
2022/02/12 00:13:56;;;;;;;;;;;;;;;;;;1030982;28;901;-42
2022/02/12 00:14:26;;;;;;;;;;;;;;;;;;1031089;28;1042;-42
2022/02/12 00:14:57;;;;;;;;;;;;;;;;;;1030967;28;961;-42
2022/02/12 00:15:27;;;;;;;;;;;;;;;;;;1031079;28;887;-42
2022/02/12 00:15:58;;;;;;;;;;;;;;;;;;1031123;28;819;-42
2022/02/12 00:16:29;;;;;;;;;;;;;;;;;;1030987;28;910;-42
2022/02/12 00:16:59;;;;;;;;;;;;;;;;;;1030963;28;1058;-42
2022/02/12 00:17:29;;;;;;;;;;;;;;;;;;1031173;28;904;-42
2022/02/12 00:17:59;;;;;;;;;;;;;;;;;;1030601;28;914;-42
2022/02/12 00:18:30;;;;;;;;;;;;;;;;;;1031101;28;1012;-42
2022/02/12 00:19:00;;;;;;;;;;;;;;;;;;1030927;28;894;-42
2022/02/12 00:19:30;;;;;;;;;;;;;;;;;;1031133;28;920;-42
2022/02/12 00:20:01;;;;;;;;;;;;;;;;;;1031022;28;927;-42
2022/02/12 00:20:32;;;;;;;;;;;;;;;;;;1030934;28;1069;-42
2022/02/12 00:21:02;;;;;;;;;;;;;;;;;;1031078;28;831;-42
2022/02/12 00:21:33;;;;;;;;;;;;;;;;;;1031046;28;946;-42
2022/02/12 00:22:03;;;;;;;;;;;;;;;;;;1030993;28;902;-42
2022/02/12 00:22:34;;;;;;;;;;;;;;;;;;1031154;28;855;-42
2022/02/12 00:23:04;;;;;;;;;;;;;;;;;;1030807;28;796;-42
2022/02/12 00:23:35;;;;;;;;;;;;;;;;;;1031156;28;1014;-42
2022/02/12 00:24:05;;;;;;;;;;;;;;;;;;1031031;28;882;-42
2022/02/12 00:24:36;;;;;;;;;;;;;;;;;;1031075;28;863;-42
2022/02/12 00:25:07;;;;;;;;;;;;;;;;;;1030961;28;971;-42
2022/02/12 00:25:37;;;;;;;;;;;;;;;;;;1031107;28;947;-42
2022/02/12 00:26:08;;;;;;;;;;;;;;;;;;1031043;28;942;-42
2022/02/12 00:26:38;;;;;;;;;;;;;;;;;;1031155;28;1088;-42
2022/02/12 00:27:09;;;;;;;;;;;;;;;;;;1022346;29;959;-42
2022/02/12 00:27:39;;;;;;;;;;;;;;;;;;1022963;28;958;-42
2022/02/12 00:28:09;;;;;;;;;;;;;;;;;;1022515;29;942;-42
2022/02/12 00:28:39;;;;;;;;;;;;;;;;;;1022919;28;807;-42
2022/02/12 00:29:10;;;;;;;;;;;;;;;;;;1030959;28;993;-42
2022/02/12 00:29:40;;;;;;;;;;;;;;;;;;1031098;28;898;-42
2022/02/12 00:30:11;;;;;;;;;;;;;;;;;;1030985;28;871;-42
2022/02/12 00:30:41;;;;;;;;;;;;;;;;;;1031008;28;835;-42
2022/02/12 00:31:11;;;;;;;;;;;;;;;;;;1030909;28;1085;-42
2022/02/12 00:31:42;;;;;;;;;;;;;;;;;;1031101;28;1914;-42
2022/02/12 00:32:12;;;;;;;;;;;;;;;;;;1031009;28;930;-42
2022/02/12 00:32:42;;;;;;;;;;;;;;;;;;1031080;28;842;-43
2022/02/12 00:33:13;;;;;;;;;;;;;;;;;;1026564;28;919;-42
2022/02/12 00:33:43;;;;;;;;;;;;;;;;;;1026600;28;1500;-42
2022/02/12 00:34:13;;;;;;;;;;;;;;;;;;1026693;28;943;-42
2022/02/12 00:34:43;;;;;;;;;;;;;;;;;;1026613;28;832;-42
2022/02/12 00:35:14;;;;;;;;;;;;;;;;;;1030867;28;926;-42
2022/02/12 00:35:45;;;;;;;;;;;;;;;;;;1031073;28;993;-42
2022/02/12 00:36:15;;;;;;;;;;;;;;;;;;1030875;28;799;-42
2022/02/12 00:36:45;;;;;;;;;;;;;;;;;;1031040;28;938;-42
2022/02/12 00:37:16;;;;;;;;;;;;;;;;;;1030969;28;1113;-42
2022/02/12 00:37:47;;;;;;;;;;;;;;;;;;1030929;28;946;-42
2022/02/12 00:38:17;;;;;;;;;;;;;;;;;;1026709;28;1001;-42
2022/02/12 00:38:50;;;;;;;;;;;;;;;;;;1026486;28;887;-42
2022/02/12 00:39:20;;;;;;;;;;;;;;;;;;1026705;28;971;-42
2022/02/12 00:39:50;;;;;;;;;;;;;;;;;;1026789;28;1001;-42
2022/02/12 00:40:22;;;;;;;;;;;;;;;;;;1030959;28;820;-42
2022/02/12 00:40:52;;;;;;;;;;;;;;;;;;1030870;28;942;-42
2022/02/12 00:41:23;;;;;;;;;;;;;;;;;;1030975;28;911;-42
2022/02/12 00:41:53;;;;;;;;;;;;;;;;;;1030900;28;948;-42
2022/02/12 00:42:24;;;;;;;;;;;;;;;;;;1031066;28;629;-42
2022/02/12 00:42:54;;;;;;;;;;;;;;;;;;1030951;28;1376;-42
2022/02/12 00:43:25;;;;;;;;;;;;;;;;;;1030942;28;914;-42
2022/02/12 00:43:55;;;;;;;;;;;;;;;;;;1030978;28;898;-42
2022/02/12 00:44:25;;;;;;;;;;;;;;;;;;1030934;28;799;-42
2022/02/12 00:44:56;;;;;;;;;;;;;;;;;;1031070;28;955;-42
2022/02/12 00:45:26;;;;;;;;;;;;;;;;;;1030842;28;899;-42
2022/02/12 00:45:57;;;;;;;;;;;;;;;;;;1031027;28;934;-42
2022/02/12 00:46:27;;;;;;;;;;;;;;;;;;1030835;28;807;-42
2022/02/12 00:46:58;;;;;;;;;;;;;;;;;;1031022;28;950;-42
2022/02/12 00:47:28;;;;;;;;;;;;;;;;;;1030907;28;910;-42
2022/02/12 00:47:58;;;;;;;;;;;;;;;;;;1030997;28;1093;-42
2022/02/12 00:48:30;;;;;;;;;;;;;;;;;;1030882;28;903;-42
2022/02/12 00:49:00;;;;;;;;;;;;;;;;;;1031134;28;943;-42
2022/02/12 00:49:31;;;;;;;;;;;;;;;;;;1030709;28;1409;-42
2022/02/12 00:50:02;;;;;;;;;;;;;;;;;;1031090;28;940;-42
2022/02/12 00:50:32;;;;;;;;;;;;;;;;;;1030679;28;812;-41
2022/02/12 00:51:02;;;;;;;;;;;;;;;;;;1030790;28;1060;-42
2022/02/12 00:51:33;;;;;;;;;;;;;;;;;;1030883;28;970;-42
2022/02/12 00:52:03;;;;;;;;;;;;;;;;;;1030812;28;1926;-42
2022/02/12 00:52:34;;;;;;;;;;;;;;;;;;1030810;28;958;-42
2022/02/12 00:53:04;;;;;;;;;;;;;;;;;;1031015;28;1625;-42
2022/02/12 00:53:34;;;;;;;;;;;;;;;;;;1030756;28;1121;-42
2022/02/12 00:54:05;;;;;;;;;;;;;;;;;;1031056;28;891;-42
2022/02/12 00:54:37;;;;;;;;;;;;;;;;;;1030852;28;928;-42
2022/02/12 00:55:08;;;;;;;;;;;;;;;;;;1030891;28;957;-42
2022/02/12 00:55:38;;;;;;;;;;;;;;;;;;1030970;28;1153;-42
2022/02/12 00:56:09;;;;;;;;;;;;;;;;;;1030684;28;990;-42
2022/02/12 00:56:39;;;;;;;;;;;;;;;;;;1031016;28;898;-42
2022/02/12 00:57:09;;;;;;;;;;;;;;;;;;1026570;28;824;-42
2022/02/12 00:57:40;;;;;;;;;;;;;;;;;;1026529;28;931;-42
2022/02/12 00:58:10;;;;;;;;;;;;;;;;;;1026685;28;824;-42
2022/02/12 00:58:40;;;;;;;;;;;;;;;;;;1027082;28;1208;-42
2022/02/12 00:59:11;;;;;;;;;;;;;;;;;;1030973;28;862;-42
2022/02/12 00:59:41;;;;;;;;;;;;;;;;;;1031015;28;1029;-42
2022/02/12 01:00:12;;;;;;;;;;;;;;;;;;1030880;28;823;-42
2022/02/12 01:00:42;;;;;;;;;;;;;;;;;;1030793;28;1164;-43
2022/02/12 01:01:12;;;;;;;;;;;;;;;;;;1030819;28;1160;-42
2022/02/12 01:01:43;;;;;;;;;;;;;;;;;;1030936;28;1036;-42
2022/02/12 01:02:13;;;;;;;;;;;;;;;;;;1030997;28;859;-42
2022/02/12 01:02:43;;;;;;;;;;;;;;;;;;1030774;28;986;-42
2022/02/12 01:03:14;;;;;;;;;;;;;;;;;;1030952;28;906;-42
2022/02/12 01:03:44;;;;;;;;;;;;;;;;;;1030838;28;1077;-42
2022/02/12 01:04:14;;;;;;;;;;;;;;;;;;1030990;28;901;-42
2022/02/12 01:04:45;;;;;;;;;;;;;;;;;;1030801;28;1045;-42
2022/02/12 01:05:15;;;;;;;;;;;;;;;;;;1030881;28;890;-42
2022/02/12 01:05:46;;;;;;;;;;;;;;;;;;1030925;28;945;-42
2022/02/12 01:06:16;;;;;;;;;;;;;;;;;;1030869;28;1062;-42
2022/02/12 01:06:47;;;;;;;;;;;;;;;;;;1029675;28;1306;-42
2022/02/12 01:07:17;;;;;;;;;;;;;;;;;;1027023;28;975;-42
2022/02/12 01:07:47;;;;;;;;;;;;;;;;;;1026862;28;919;-42
2022/02/12 01:08:17;;;;;;;;;;;;;;;;;;1026976;28;1037;-42
2022/02/12 01:08:48;;;;;;;;;;;;;;;;;;1026976;28;890;-42
2022/02/12 01:09:20;;;;;;;;;;;;;;;;;;1026910;28;934;-42
2022/02/12 01:09:52;;;;;;;;;;;;;;;;;;1026860;28;824;-42
2022/02/12 01:10:22;;;;;;;;;;;;;;;;;;1027014;28;978;-42
2022/02/12 01:10:53;;;;;;;;;;;;;;;;;;1026603;28;791;-40
2022/02/12 01:11:23;;;;;;;;;;;;;;;;;;1027034;28;895;-42
2022/02/12 01:11:56;;;;;;;;;;;;;;;;;;1026692;28;1966;-42
2022/02/12 01:12:26;;;;;;;;;;;;;;;;;;1026949;28;1672;-42
2022/02/12 01:12:58;;;;;;;;;;;;;;;;;;1026771;28;788;-42
2022/02/12 01:13:28;;;;;;;;;;;;;;;;;;1026809;28;910;-42
2022/02/12 01:13:59;;;;;;;;;;;;;;;;;;1027035;28;895;-42
2022/02/12 01:14:29;;;;;;;;;;;;;;;;;;1026771;28;1032;-42
2022/02/12 01:14:59;;;;;;;;;;;;;;;;;;1026505;28;824;-42
2022/02/12 01:15:32;;;;;;;;;;;;;;;;;;1026431;28;975;-42
2022/02/12 01:16:02;;;;;;;;;;;;;;;;;;1026342;28;1009;-42
2022/02/12 01:16:33;;;;;;;;;;;;;;;;;;1026632;28;915;-42
2022/02/12 01:17:03;;;;;;;;;;;;;;;;;;1030028;28;1186;-42
2022/02/12 01:17:35;;;;;;;;;;;;;;;;;;1030369;28;1695;-42
2022/02/12 01:18:05;;;;;;;;;;;;;;;;;;1030614;28;1017;-42
2022/02/12 01:18:35;;;;;;;;;;;;;;;;;;1030422;28;886;-42
2022/02/12 01:19:06;;;;;;;;;;;;;;;;;;1030690;28;870;-42
2022/02/12 01:19:36;;;;;;;;;;;;;;;;;;1030715;28;749;-42
2022/02/12 01:20:07;;;;;;;;;;;;;;;;;;1030935;28;874;-42
2022/02/12 01:20:39;;;;;;;;;;;;;;;;;;1030770;28;970;-42
2022/02/12 01:21:09;;;;;;;;;;;;;;;;;;1030834;28;1006;-42
2022/02/12 01:21:39;;;;;;;;;;;;;;;;;;1030810;28;1034;-42
2022/02/12 01:22:10;;;;;;;;;;;;;;;;;;1030962;28;1030;-42
2022/02/12 01:22:40;;;;;;;;;;;;;;;;;;1030809;28;846;-42
2022/02/12 01:23:11;;;;;;;;;;;;;;;;;;1030835;28;934;-42
2022/02/12 01:23:42;;;;;;;;;;;;;;;;;;1030765;28;989;-42
2022/02/12 01:24:12;;;;;;;;;;;;;;;;;;1030862;28;962;-42
2022/02/12 01:24:43;;;;;;;;;;;;;;;;;;1030951;28;902;-42
2022/02/12 01:25:13;;;;;;;;;;;;;;;;;;1030683;28;987;-42
2022/02/12 01:25:44;;;;;;;;;;;;;;;;;;1030859;28;957;-42
2022/02/12 01:26:14;;;;;;;;;;;;;;;;;;1030789;28;1081;-43
2022/02/12 01:26:44;;;;;;;;;;;;;;;;;;1030894;28;816;-42
2022/02/12 01:27:15;;;;;;;;;;;;;;;;;;1030927;28;943;-42
2022/02/12 01:27:45;;;;;;;;;;;;;;;;;;1030739;28;911;-42
2022/02/12 01:28:16;;;;;;;;;;;;;;;;;;1030840;28;1179;-42
2022/02/12 01:28:47;;;;;;;;;;;;;;;;;;1030819;28;946;-42
2022/02/12 01:29:17;;;;;;;;;;;;;;;;;;1030901;28;906;-42
2022/02/12 01:29:47;;;;;;;;;;;;;;;;;;1030887;28;907;-42
2022/02/12 01:30:18;;;;;;;;;;;;;;;;;;1030851;28;982;-42
2022/02/12 01:30:48;;;;;;;;;;;;;;;;;;1030700;28;929;-42
2022/02/12 01:31:20;;;;;;;;;;;;;;;;;;1030957;28;891;-42
2022/02/12 01:31:50;;;;;;;;;;;;;;;;;;1030687;28;1958;-42
2022/02/12 01:32:21;;;;;;;;;;;;;;;;;;1030927;28;812;-42
2022/02/12 01:32:51;;;;;;;;;;;;;;;;;;1030843;28;878;-42
2022/02/12 01:33:22;;;;;;;;;;;;;;;;;;1030377;28;1129;-42
2022/02/12 01:33:52;;;;;;;;;;;;;;;;;;1030545;28;950;-42
2022/02/12 01:34:23;;;;;;;;;;;;;;;;;;1030378;28;1750;-42
2022/02/12 01:34:53;;;;;;;;;;;;;;;;;;1030478;28;954;-42
2022/02/12 01:35:24;;;;;;;;;;;;;;;;;;1030831;28;977;-42
2022/02/12 01:35:54;;;;;;;;;;;;;;;;;;1030816;28;1013;-42
2022/02/12 01:36:25;;;;;;;;;;;;;;;;;;1030837;28;816;-42
2022/02/12 01:36:55;;;;;;;;;;;;;;;;;;1030788;28;1083;-42
2022/02/12 01:37:26;;;;;;;;;;;;;;;;;;1030904;28;871;-43
2022/02/12 01:37:57;;;;;;;;;;;;;;;;;;1030980;28;978;-42
2022/02/12 01:38:28;;;;;;;;;;;;;;;;;;1030610;28;1207;-42
2022/02/12 01:38:59;;;;;;;;;;;;;;;;;;1030871;28;958;-42
2022/02/12 01:39:29;;;;;;;;;;;;;;;;;;1030719;28;954;-42
2022/02/12 01:39:59;;;;;;;;;;;;;;;;;;1030936;28;1024;-42
2022/02/12 01:40:30;;;;;;;;;;;;;;;;;;1030560;28;1085;-42
2022/02/12 01:41:01;;;;;;;;;;;;;;;;;;1030920;28;1916;-42
2022/02/12 01:41:32;;;;;;;;;;;;;;;;;;1030632;28;1017;-42
2022/02/12 01:42:02;;;;;;;;;;;;;;;;;;1031025;28;800;-43
2022/02/12 01:42:33;;;;;;;;;;;;;;;;;;1030621;28;989;-42
2022/02/12 01:43:07;;;;;;;;;;;;;;;;;;1030950;28;970;-42
2022/02/12 01:43:37;;;;;;;;;;;;;;;;;;1030730;28;998;-42
2022/02/12 01:44:08;;;;;;;;;;;;;;;;;;1030856;28;961;-42
2022/02/12 01:44:39;;;;;;;;;;;;;;;;;;1030794;28;1027;-42
2022/02/12 01:45:09;;;;;;;;;;;;;;;;;;1030766;28;942;-42
2022/02/12 01:45:40;;;;;;;;;;;;;;;;;;1030849;28;1195;-43
2022/02/12 01:46:11;;;;;;;;;;;;;;;;;;1030703;28;886;-42
2022/02/12 01:46:41;;;;;;;;;;;;;;;;;;1030794;28;921;-42
2022/02/12 01:47:11;;;;;;;;;;;;;;;;;;1030842;28;934;-42
2022/02/12 01:47:42;;;;;;;;;;;;;;;;;;1030708;28;902;-42
2022/02/12 01:48:13;;;;;;;;;;;;;;;;;;1030849;28;799;-42
2022/02/12 01:48:44;;;;;;;;;;;;;;;;;;1030721;28;969;-42
2022/02/12 01:49:14;;;;;;;;;;;;;;;;;;1030848;28;864;-42
2022/02/12 01:49:45;;;;;;;;;;;;;;;;;;1030821;28;1183;-42
2022/02/12 01:50:16;;;;;;;;;;;;;;;;;;1030846;28;942;-42
2022/02/12 01:50:50;;;;;;;;;;;;;;;;;;1030653;28;1152;-42
2022/02/12 01:51:22;;;;;;;;;;;;;;;;;;1030857;28;967;-42
2022/02/12 01:51:53;;;;;;;;;;;;;;;;;;1030625;28;1977;-42
2022/02/12 01:52:27;;;;;;;;;;;;;;;;;;1030993;28;918;-42
2022/02/12 01:52:57;;;;;;;;;;;;;;;;;;1030506;28;811;-42
2022/02/12 01:53:28;;;;;;;;;;;;;;;;;;1030878;28;807;-42
2022/02/12 01:53:58;;;;;;;;;;;;;;;;;;1030691;28;902;-42
2022/02/12 01:54:29;;;;;;;;;;;;;;;;;;1030932;28;942;-42
2022/02/12 01:55:00;;;;;;;;;;;;;;;;;;1030698;28;863;-43
2022/02/12 01:55:30;;;;;;;;;;;;;;;;;;1030764;28;934;-42
2022/02/12 01:56:03;;;;;;;;;;;;;;;;;;1030674;28;1347;-42
2022/02/12 01:56:34;;;;;;;;;;;;;;;;;;1030829;28;986;-42
2022/02/12 01:57:06;;;;;;;;;;;;;;;;;;1030737;28;983;-42
2022/02/12 01:57:36;;;;;;;;;;;;;;;;;;1030960;28;1243;-42
2022/02/12 01:58:09;;;;;;;;;;;;;;;;;;1030507;28;970;-43
2022/02/12 01:58:39;;;;;;;;;;;;;;;;;;1030732;28;1081;-42
2022/02/12 01:59:10;;;;;;;;;;;;;;;;;;1030707;28;990;-42
2022/02/12 01:59:40;;;;;;;;;;;;;;;;;;1030710;28;994;-42
2022/02/12 02:00:12;;;;;;;;;;;;;;;;;;1030841;28;948;-42
2022/02/12 02:00:45;;;;;;;;;;;;;;;;;;1030532;28;851;-42
2022/02/12 02:01:17;;;;;;;;;;;;;;;;;;1030847;28;954;-42
2022/02/12 02:01:47;;;;;;;;;;;;;;;;;;1030581;28;875;-42
2022/02/12 02:02:17;;;;;;;;;;;;;;;;;;1030795;28;930;-42
2022/02/12 02:02:48;;;;;;;;;;;;;;;;;;1030740;28;834;-42
2022/02/12 02:03:18;;;;;;;;;;;;;;;;;;1031456;28;906;-42
2022/02/12 02:03:49;;;;;;;;;;;;;;;;;;1031461;28;818;-43
2022/02/12 02:04:19;;;;;;;;;;;;;;;;;;1031730;28;1077;-42
2022/02/12 02:04:50;;;;;;;;;;;;;;;;;;1031442;28;870;-42
2022/02/12 02:05:20;;;;;;;;;;;;;;;;;;1031632;28;1038;-43
2022/02/12 02:05:51;;;;;;;;;;;;;;;;;;1031487;28;863;-42
2022/02/12 02:06:22;;;;;;;;;;;;;;;;;;1031619;28;946;-42
2022/02/12 02:06:52;;;;;;;;;;;;;;;;;;1029731;28;1196;-42
2022/02/12 02:07:23;;;;;;;;;;;;;;;;;;1027436;28;966;-42
2022/02/12 02:07:53;;;;;;;;;;;;;;;;;;1027557;28;939;-42
2022/02/12 02:08:23;;;;;;;;;;;;;;;;;;1027671;28;1139;-41
2022/02/12 02:08:54;;;;;;;;;;;;;;;;;;1027472;28;874;-42
2022/02/12 02:09:26;;;;;;;;;;;;;;;;;;1027734;28;938;-42
2022/02/12 02:09:57;;;;;;;;;;;;;;;;;;1027440;28;1030;-42
2022/02/12 02:10:27;;;;;;;;;;;;;;;;;;1027686;28;812;-42
2022/02/12 02:10:58;;;;;;;;;;;;;;;;;;1027397;28;1021;-42
2022/02/12 02:11:29;;;;;;;;;;;;;;;;;;1027508;28;859;-42
2022/02/12 02:11:59;;;;;;;;;;;;;;;;;;1027367;28;1978;-42
2022/02/12 02:12:29;;;;;;;;;;;;;;;;;;1027615;28;894;-42
2022/02/12 02:12:59;;;;;;;;;;;;;;;;;;1027474;28;1087;-42
2022/02/12 02:13:30;;;;;;;;;;;;;;;;;;1027656;28;842;-42
2022/02/12 02:14:00;;;;;;;;;;;;;;;;;;1027296;28;1284;-42
2022/02/12 02:14:34;;;;;;;;;;;;;;;;;;1027679;28;827;-42
2022/02/12 02:15:06;;;;;;;;;;;;;;;;;;1027445;28;1190;-42
2022/02/12 02:15:36;;;;;;;;;;;;;;;;;;1027508;28;927;-42
2022/02/12 02:16:11;;;;;;;;;;;;;;;;;;1027351;28;891;-42
2022/02/12 02:16:42;;;;;;;;;;;;;;;;;;1027456;28;894;-41
2022/02/12 02:17:12;;;;;;;;;;;;;;;;;;1028079;28;1039;-41
2022/02/12 02:17:42;;;;;;;;;;;;;;;;;;1031523;28;1078;-41
2022/02/12 02:18:13;;;;;;;;;;;;;;;;;;1031501;28;823;-41
2022/02/12 02:18:43;;;;;;;;;;;;;;;;;;1031587;28;957;-41
2022/02/12 02:19:13;;;;;;;;;;;;;;;;;;1031532;28;854;-41
2022/02/12 02:19:44;;;;;;;;;;;;;;;;;;1031614;28;987;-41
2022/02/12 02:20:14;;;;;;;;;;;;;;;;;;1031409;28;1391;-42
2022/02/12 02:20:44;;;;;;;;;;;;;;;;;;1031440;28;919;-42
2022/02/12 02:21:18;;;;;;;;;;;;;;;;;;1031536;28;823;-42
2022/02/12 02:21:51;;;;;;;;;;;;;;;;;;1031655;28;959;-42
2022/02/12 02:22:25;;;;;;;;;;;;;;;;;;1031334;28;1041;-42
2022/02/12 02:22:57;;;;;;;;;;;;;;;;;;1031596;28;947;-41
2022/02/12 02:23:27;;;;;;;;;;;;;;;;;;1031337;28;977;-42
2022/02/12 02:23:58;;;;;;;;;;;;;;;;;;1031682;28;915;-42
2022/02/12 02:24:29;;;;;;;;;;;;;;;;;;1031284;28;1033;-42
2022/02/12 02:24:59;;;;;;;;;;;;;;;;;;1031474;28;951;-42
2022/02/12 02:25:30;;;;;;;;;;;;;;;;;;1031534;28;974;-42
2022/02/12 02:26:02;;;;;;;;;;;;;;;;;;1031499;28;831;-42
2022/02/12 02:26:33;;;;;;;;;;;;;;;;;;1031491;28;1618;-42
2022/02/12 02:27:05;;;;;;;;;;;;;;;;;;1031490;28;796;-43
2022/02/12 02:27:35;;;;;;;;;;;;;;;;;;1031441;28;1025;-42
2022/02/12 02:28:06;;;;;;;;;;;;;;;;;;1031494;28;823;-42
2022/02/12 02:28:36;;;;;;;;;;;;;;;;;;1031581;28;1111;-42
2022/02/12 02:29:06;;;;;;;;;;;;;;;;;;1031321;28;946;-42
2022/02/12 02:29:37;;;;;;;;;;;;;;;;;;1031641;28;1010;-42
2022/02/12 02:30:15;;;;;;;;;;;;;;;;;;1031297;28;918;-42
2022/02/12 02:30:45;;;;;;;;;;;;;;;;;;1031407;28;946;-42
2022/02/12 02:31:15;;;;;;;;;;;;;;;;;;1031413;28;1080;-42
2022/02/12 02:31:46;;;;;;;;;;;;;;;;;;1031518;28;1930;-42
2022/02/12 02:32:17;;;;;;;;;;;;;;;;;;1031456;28;827;-42
2022/02/12 02:32:48;;;;;;;;;;;;;;;;;;1031291;28;978;-42
2022/02/12 02:33:19;;;;;;;;;;;;;;;;;;1031408;28;858;-42
2022/02/12 02:33:50;;;;;;;;;;;;;;;;;;1031677;28;822;-42
2022/02/12 02:34:20;;;;;;;;;;;;;;;;;;1031346;28;942;-42
2022/02/12 02:34:52;;;;;;;;;;;;;;;;;;1031663;28;938;-42
2022/02/12 02:35:25;;;;;;;;;;;;;;;;;;1031271;28;1628;-43
2022/02/12 02:35:55;;;;;;;;;;;;;;;;;;1031592;28;874;-42
2022/02/12 02:36:26;;;;;;;;;;;;;;;;;;1031470;28;930;-42
2022/02/12 02:36:56;;;;;;;;;;;;;;;;;;1031466;28;942;-41
2022/02/12 02:37:27;;;;;;;;;;;;;;;;;;1031402;28;926;-42
2022/02/12 02:38:04;;;;;;;;;;;;;;;;;;1031423;28;926;-42
2022/02/12 02:38:34;;;;;;;;;;;;;;;;;;1031594;28;955;-42
2022/02/12 02:39:05;;;;;;;;;;;;;;;;;;1031403;28;903;-42
2022/02/12 02:39:36;;;;;;;;;;;;;;;;;;1031459;28;1044;-42
2022/02/12 02:40:13;;;;;;;;;;;;;;;;;;1031423;28;906;-42
2022/02/12 02:40:45;;;;;;;;;;;;;;;;;;1031201;28;994;-42
2022/02/12 02:41:15;;;;;;;;;;;;;;;;;;1031387;28;946;-42
2022/02/12 02:41:45;;;;;;;;;;;;;;;;;;1031453;28;950;-42
2022/02/12 02:42:16;;;;;;;;;;;;;;;;;;1031487;28;930;-42
2022/02/12 02:42:47;;;;;;;;;;;;;;;;;;1031449;28;895;-42
2022/02/12 02:43:17;;;;;;;;;;;;;;;;;;1031381;28;1032;-42
2022/02/12 02:43:47;;;;;;;;;;;;;;;;;;1031394;28;962;-42
2022/02/12 02:44:18;;;;;;;;;;;;;;;;;;1031609;28;954;-41
2022/02/12 02:44:48;;;;;;;;;;;;;;;;;;1031269;28;851;-42
2022/02/12 02:45:19;;;;;;;;;;;;;;;;;;1031560;28;1001;-42
2022/02/12 02:45:49;;;;;;;;;;;;;;;;;;1031261;28;1092;-42
2022/02/12 02:46:21;;;;;;;;;;;;;;;;;;1031378;28;863;-41
2022/02/12 02:46:51;;;;;;;;;;;;;;;;;;1031466;28;810;-42
2022/02/12 02:47:36;;;;;;;;;;;;;;;;;;1031382;28;996;-42
2022/02/12 02:48:08;;;;;;;;;;;;;;;;;;1031479;28;1033;-42
2022/02/12 02:48:39;;;;;;;;;;;;;;;;;;1031174;28;986;-42
2022/02/12 02:49:09;;;;;;;;;;;;;;;;;;1031616;28;927;-42
2022/02/12 02:49:40;;;;;;;;;;;;;;;;;;1031268;28;839;-42
2022/02/12 02:56:02;;;;;;;;;;;;;;;;;;1035283;28;1257;-42
2022/02/12 02:56:33;;;;;;;;;;;;;;;;;;1035263;28;891;-42
2022/02/12 02:57:03;;;;;;;;;;;;;;;;;;1035474;28;1108;-42
2022/02/12 02:57:33;;;;;;;;;;;;;;;;;;1035263;28;950;-42
2022/02/12 02:58:03;;;;;;;;;;;;;;;;;;1035319;28;1025;-42
2022/02/12 02:58:41;;;;;;;;;;;;;;;;;;1035374;28;902;-42
2022/02/12 02:59:11;;;;;;;;;;;;;;;;;;1031471;28;990;-42
2022/02/12 02:59:42;;;;;;;;;;;;;;;;;;1031290;28;823;-42
2022/02/12 03:00:12;;;;;;;;;;;;;;;;;;1031424;28;947;-42
2022/02/12 03:00:43;;;;;;;;;;;;;;;;;;1031092;28;970;-42
2022/02/12 03:01:17;;;;;;;;;;;;;;;;;;1031515;28;994;-42
2022/02/12 03:01:52;;;;;;;;;;;;;;;;;;1031196;28;930;-42
2022/02/12 03:02:23;;;;;;;;;;;;;;;;;;1031224;28;859;-42
2022/02/12 03:02:53;;;;;;;;;;;;;;;;;;1031431;28;927;-42
2022/02/12 03:03:23;;;;;;;;;;;;;;;;;;1031245;28;1016;-42
2022/02/12 03:03:54;;;;;;;;;;;;;;;;;;1031539;28;916;-42
2022/02/12 03:04:25;;;;;;;;;;;;;;;;;;1031087;28;1370;-42
2022/02/12 03:04:55;;;;;;;;;;;;;;;;;;1031512;28;943;-43
2022/02/12 03:05:25;;;;;;;;;;;;;;;;;;1031330;28;962;-42
2022/02/12 03:05:57;;;;;;;;;;;;;;;;;;1031375;28;1030;-42
2022/02/12 03:06:28;;;;;;;;;;;;;;;;;;1031228;28;938;-42
2022/02/12 03:06:58;;;;;;;;;;;;;;;;;;1028559;28;1018;-42
2022/02/12 03:07:28;;;;;;;;;;;;;;;;;;1027253;28;973;-42
2022/02/12 03:07:59;;;;;;;;;;;;;;;;;;1027312;28;919;-42
2022/02/12 03:08:29;;;;;;;;;;;;;;;;;;1027291;28;895;-42
2022/02/12 03:09:00;;;;;;;;;;;;;;;;;;1027253;28;1094;-42
2022/02/12 03:09:30;;;;;;;;;;;;;;;;;;1027334;28;1348;-40
2022/02/12 03:10:01;;;;;;;;;;;;;;;;;;1027245;28;1066;-43
2022/02/12 03:10:31;;;;;;;;;;;;;;;;;;1027348;28;863;-42
2022/02/12 03:11:02;;;;;;;;;;;;;;;;;;1027117;28;813;-42
2022/02/12 03:11:32;;;;;;;;;;;;;;;;;;1027285;28;931;-42
2022/02/12 03:12:03;;;;;;;;;;;;;;;;;;1027280;28;1911;-42
2022/02/12 03:12:33;;;;;;;;;;;;;;;;;;1027361;28;975;-42
2022/02/12 03:13:03;;;;;;;;;;;;;;;;;;1027277;28;955;-42
2022/02/12 03:13:34;;;;;;;;;;;;;;;;;;1027265;28;926;-42
2022/02/12 03:14:04;;;;;;;;;;;;;;;;;;1027208;28;903;-42
2022/02/12 03:14:37;;;;;;;;;;;;;;;;;;1027432;28;903;-42
2022/02/12 03:15:08;;;;;;;;;;;;;;;;;;1027084;28;874;-42
2022/02/12 03:15:40;;;;;;;;;;;;;;;;;;1027548;28;1003;-42
2022/02/12 03:16:11;;;;;;;;;;;;;;;;;;1027207;28;835;-42
2022/02/12 03:16:41;;;;;;;;;;;;;;;;;;1027265;28;993;-42
2022/02/12 03:17:12;;;;;;;;;;;;;;;;;;1027161;28;1090;-42
2022/02/12 03:17:42;;;;;;;;;;;;;;;;;;1027192;28;912;-42
2022/02/12 03:18:12;;;;;;;;;;;;;;;;;;1027289;28;1075;-42
2022/02/12 03:18:44;;;;;;;;;;;;;;;;;;1027366;28;930;-42
2022/02/12 03:19:14;;;;;;;;;;;;;;;;;;1027235;28;911;-42
2022/02/12 03:19:45;;;;;;;;;;;;;;;;;;1027321;28;963;-41
2022/02/12 03:20:15;;;;;;;;;;;;;;;;;;1027304;28;1093;-42
2022/02/12 03:20:45;;;;;;;;;;;;;;;;;;1027122;28;971;-42
2022/02/12 03:21:16;;;;;;;;;;;;;;;;;;1027235;28;922;-42
2022/02/12 03:21:46;;;;;;;;;;;;;;;;;;1027188;28;955;-42
2022/02/12 03:22:17;;;;;;;;;;;;;;;;;;1027351;28;1059;-42
2022/02/12 03:22:47;;;;;;;;;;;;;;;;;;1027296;28;859;-42
2022/02/12 03:23:17;;;;;;;;;;;;;;;;;;1027192;28;868;-42
2022/02/12 03:23:49;;;;;;;;;;;;;;;;;;1027347;28;1089;-43
2022/02/12 03:24:19;;;;;;;;;;;;;;;;;;1027157;28;920;-42
2022/02/12 03:24:50;;;;;;;;;;;;;;;;;;1027359;28;943;-42
2022/02/12 03:25:20;;;;;;;;;;;;;;;;;;1027242;28;1628;-42
2022/02/12 03:25:51;;;;;;;;;;;;;;;;;;1027239;28;943;-42
2022/02/12 03:26:23;;;;;;;;;;;;;;;;;;1027298;28;915;-42
2022/02/12 03:26:53;;;;;;;;;;;;;;;;;;1027161;28;986;-42
2022/02/12 03:27:23;;;;;;;;;;;;;;;;;;1027289;28;1006;-42
2022/02/12 03:27:55;;;;;;;;;;;;;;;;;;1027278;28;858;-42
2022/02/12 03:28:25;;;;;;;;;;;;;;;;;;1027111;28;976;-42
2022/02/12 03:28:56;;;;;;;;;;;;;;;;;;1027435;28;902;-42
2022/02/12 03:29:26;;;;;;;;;;;;;;;;;;1027152;28;958;-42
2022/02/12 03:29:56;;;;;;;;;;;;;;;;;;1027269;28;962;-42
2022/02/12 03:30:27;;;;;;;;;;;;;;;;;;1027245;28;905;-42
2022/02/12 03:30:58;;;;;;;;;;;;;;;;;;1027140;28;768;-42
2022/02/12 03:31:28;;;;;;;;;;;;;;;;;;1027181;28;903;-42
2022/02/12 03:31:58;;;;;;;;;;;;;;;;;;1027169;28;2194;-42
2022/02/12 03:32:29;;;;;;;;;;;;;;;;;;1027133;28;980;-42
2022/02/12 03:32:59;;;;;;;;;;;;;;;;;;1027136;28;951;-42
2022/02/12 03:33:30;;;;;;;;;;;;;;;;;;1027209;28;1089;-42
2022/02/12 03:34:00;;;;;;;;;;;;;;;;;;1027179;28;903;-42
2022/02/12 03:34:30;;;;;;;;;;;;;;;;;;1027266;28;1163;-42
2022/02/12 03:35:00;;;;;;;;;;;;;;;;;;1027077;28;1597;-42
2022/02/12 03:35:31;;;;;;;;;;;;;;;;;;1027367;28;898;-42
2022/02/12 03:36:02;;;;;;;;;;;;;;;;;;1026740;28;1030;-42
2022/02/12 03:36:33;;;;;;;;;;;;;;;;;;1026816;28;835;-42
2022/02/12 03:37:03;;;;;;;;;;;;;;;;;;1026966;28;1026;-43
2022/02/12 03:37:33;;;;;;;;;;;;;;;;;;1026825;28;862;-42
2022/02/12 03:38:06;;;;;;;;;;;;;;;;;;1027242;28;1034;-42
2022/02/12 03:38:39;;;;;;;;;;;;;;;;;;1027178;28;824;-42
2022/02/12 03:39:09;;;;;;;;;;;;;;;;;;1027375;28;935;-42
2022/02/12 03:39:39;;;;;;;;;;;;;;;;;;1027057;28;867;-42
2022/02/12 03:40:13;;;;;;;;;;;;;;;;;;1027233;28;947;-42
2022/02/12 03:40:47;;;;;;;;;;;;;;;;;;1027059;28;927;-42
2022/02/12 03:41:18;;;;;;;;;;;;;;;;;;1027271;28;1627;-42
2022/02/12 03:41:48;;;;;;;;;;;;;;;;;;1027175;28;819;-42
2022/02/12 03:42:18;;;;;;;;;;;;;;;;;;1027204;28;1078;-42